Time,TemperatureF,DewpointF,PressureIn,WindDirection,WindDirectionDegrees,WindSpeedMPH,WindSpeedGustMPH,Humidity,HourlyPrecipIn,Conditions,Clouds,dailyrainin,SoftwareType,DateUTC
2013-07-21 00:03:00,70.2,69.6,29.88,SSW,196,0.0,0.0,98,0.00,,,0.24,meteobridge,2013-07-21 04:03:00,
2013-07-21 00:08:00,70.0,69.4,29.88,SSW,196,0.0,0.0,98,0.00,,,0.24,meteobridge,2013-07-21 04:08:00,
2013-07-21 00:13:00,70.0,69.4,29.88,SSW,196,0.0,0.0,98,0.00,,,0.24,meteobridge,2013-07-21 04:13:00,
2013-07-21 00:18:00,70.2,69.8,29.88,SSW,196,0.0,0.0,99,0.00,,,0.24,meteobridge,2013-07-21 04:18:00,
2013-07-21 00:23:00,70.2,69.8,29.88,SSW,196,0.0,0.0,99,0.00,,,0.24,meteobridge,2013-07-21 04:23:00,
2013-07-21 00:29:00,70.3,70.0,29.88,SSW,196,0.0,0.0,99,0.00,,,0.24,meteobridge,2013-07-21 04:29:00,
2013-07-21 00:34:00,70.3,69.8,29.87,SSW,196,0.0,0.0,98,0.00,,,0.24,meteobridge,2013-07-21 04:34:00,
2013-07-21 00:39:00,70.3,69.8,29.87,SSW,196,0.0,0.0,98,0.00,,,0.24,meteobridge,2013-07-21 04:39:00,
2013-07-21 00:44:00,70.2,69.8,29.87,SSW,196,0.0,0.0,99,0.00,,,0.24,meteobridge,2013-07-21 04:44:00,
2013-07-21 00:49:00,70.0,69.4,29.87,SSW,196,0.0,0.0,98,0.00,,,0.24,meteobridge,2013-07-21 04:49:00,
2013-07-21 00:54:00,70.0,69.6,29.87,SSW,196,0.0,0.0,99,0.00,,,0.24,meteobridge,2013-07-21 04:54:00,
2013-07-21 00:59:00,69.8,69.3,29.87,SSW,196,0.0,0.0,98,0.00,,,0.24,meteobridge,2013-07-21 04:59:00,
2013-07-21 01:05:00,69.6,69.3,29.87,SSW,196,0.0,0.0,99,0.00,,,0.24,meteobridge,2013-07-21 05:05:00,
2013-07-21 01:10:00,69.6,69.3,29.87,SSW,196,0.0,0.0,99,0.00,,,0.24,meteobridge,2013-07-21 05:10:00,
2013-07-21 01:15:00,69.4,69.1,29.88,SSW,196,0.0,0.0,99,0.00,,,0.24,meteobridge,2013-07-21 05:15:00,
2013-07-21 01:20:00,69.4,69.1,29.88,SSW,196,0.0,0.0,99,0.00,,,0.24,meteobridge,2013-07-21 05:20:00,
2013-07-21 01:26:00,69.3,68.9,29.88,SSW,196,0.0,0.0,99,0.00,,,0.24,meteobridge,2013-07-21 05:26:00,
2013-07-21 01:31:00,69.3,68.9,29.88,SSW,196,0.0,0.0,99,0.00,,,0.24,meteobridge,2013-07-21 05:31:00,
2013-07-21 01:36:00,69.3,68.9,29.88,SSW,196,0.0,0.0,99,0.00,,,0.24,meteobridge,2013-07-21 05:36:00,
2013-07-21 01:41:00,69.3,68.9,29.88,SSW,196,0.0,0.0,99,0.00,,,0.24,meteobridge,2013-07-21 05:41:00,
2013-07-21 01:46:00,69.3,68.9,29.89,SSW,196,0.0,0.0,99,0.00,,,0.24,meteobridge,2013-07-21 05:46:00,
2013-07-21 01:51:00,69.3,68.9,29.89,SSW,196,0.0,0.0,99,0.00,,,0.24,meteobridge,2013-07-21 05:51:00,
2013-07-21 01:57:00,69.3,68.9,29.89,SSW,196,0.0,0.0,99,0.00,,,0.24,meteobridge,2013-07-21 05:57:00,
2013-07-21 02:02:00,69.3,68.9,29.89,SSW,196,0.0,0.0,99,0.00,,,0.24,meteobridge,2013-07-21 06:02:00,
2013-07-21 02:07:00,69.3,68.9,29.89,SSW,196,0.0,0.0,99,0.00,,,0.24,meteobridge,2013-07-21 06:07:00,
2013-07-21 02:12:00,69.3,68.9,29.89,SSW,196,0.0,0.0,99,0.00,,,0.24,meteobridge,2013-07-21 06:12:00,
2013-07-21 02:17:00,69.3,68.9,29.89,SSW,196,0.0,0.0,99,0.00,,,0.24,meteobridge,2013-07-21 06:17:00,
2013-07-21 02:22:00,69.4,69.1,29.89,SSW,196,0.0,0.0,99,0.00,,,0.24,meteobridge,2013-07-21 06:22:00,
2013-07-21 02:28:00,69.4,69.1,29.89,SSW,196,0.0,0.0,99,0.00,,,0.24,meteobridge,2013-07-21 06:28:00,
2013-07-21 02:33:00,69.6,69.3,29.88,SSW,196,0.0,0.0,99,0.00,,,0.24,meteobridge,2013-07-21 06:33:00,
2013-07-21 02:38:00,69.6,69.3,29.88,SSW,196,0.0,0.0,99,0.00,,,0.24,meteobridge,2013-07-21 06:38:00,
2013-07-21 02:43:00,69.8,69.4,29.88,SSW,196,0.0,0.0,99,0.00,,,0.24,meteobridge,2013-07-21 06:43:00,
2013-07-21 02:48:00,69.8,69.4,29.88,SSW,196,0.0,0.0,99,0.00,,,0.24,meteobridge,2013-07-21 06:48:00,
2013-07-21 02:53:00,69.8,69.4,29.88,SSW,196,0.0,0.0,99,0.00,,,0.24,meteobridge,2013-07-21 06:53:00,
2013-07-21 02:59:00,69.8,69.4,29.88,SSW,196,0.0,0.0,99,0.00,,,0.24,meteobridge,2013-07-21 06:59:00,
2013-07-21 03:04:00,69.8,69.4,29.88,SSW,196,0.0,0.0,99,0.00,,,0.24,meteobridge,2013-07-21 07:04:00,
2013-07-21 03:09:00,69.8,69.4,29.88,SSW,196,0.0,0.0,99,0.00,,,0.24,meteobridge,2013-07-21 07:09:00,
2013-07-21 03:14:00,69.8,69.4,29.88,SSW,196,0.0,0.0,99,0.00,,,0.24,meteobridge,2013-07-21 07:14:00,
2013-07-21 03:19:00,69.8,69.4,29.88,SSW,196,0.0,0.0,99,0.00,,,0.24,meteobridge,2013-07-21 07:19:00,
2013-07-21 03:24:00,69.8,69.4,29.88,SSW,196,0.0,0.0,99,0.00,,,0.24,meteobridge,2013-07-21 07:24:00,
2013-07-21 03:29:00,69.8,69.4,29.88,SSW,196,0.0,0.0,99,0.00,,,0.24,meteobridge,2013-07-21 07:29:00,
2013-07-21 03:35:00,70.0,69.6,29.88,SSW,196,0.0,0.0,99,0.00,,,0.24,meteobridge,2013-07-21 07:35:00,
2013-07-21 03:40:00,70.0,69.6,29.88,SSW,196,0.0,0.0,99,0.00,,,0.24,meteobridge,2013-07-21 07:40:00,
2013-07-21 03:45:00,70.2,69.8,29.87,SSW,196,0.0,0.0,99,0.00,,,0.24,meteobridge,2013-07-21 07:45:00,
2013-07-21 03:50:00,70.3,70.0,29.87,SSW,196,0.0,0.0,99,0.00,,,0.24,meteobridge,2013-07-21 07:50:00,
2013-07-21 03:56:00,70.3,70.0,29.87,SSW,196,0.0,0.0,99,0.00,,,0.24,meteobridge,2013-07-21 07:56:00,
2013-07-21 04:01:00,70.3,70.0,29.87,SSW,196,0.0,0.0,99,0.00,,,0.24,meteobridge,2013-07-21 08:01:00,
2013-07-21 04:06:00,70.3,70.0,29.87,SSW,196,0.0,0.0,99,0.00,,,0.24,meteobridge,2013-07-21 08:06:00,
2013-07-21 04:11:00,70.3,70.0,29.87,SSW,196,0.0,0.0,99,0.00,,,0.24,meteobridge,2013-07-21 08:11:00,
2013-07-21 04:16:00,70.3,70.0,29.86,SSW,196,0.0,0.0,99,0.00,,,0.24,meteobridge,2013-07-21 08:16:00,
2013-07-21 04:21:00,70.3,70.0,29.86,SSW,196,0.0,0.0,99,0.00,,,0.24,meteobridge,2013-07-21 08:21:00,
2013-07-21 04:26:00,70.3,70.0,29.86,SSW,196,0.0,0.0,99,0.00,,,0.24,meteobridge,2013-07-21 08:26:00,
2013-07-21 04:31:00,70.3,70.0,29.86,SSW,196,0.0,0.0,99,0.00,,,0.24,meteobridge,2013-07-21 08:31:00,
2013-07-21 04:36:00,70.3,70.0,29.86,SSW,196,0.0,2.0,99,0.00,,,0.24,meteobridge,2013-07-21 08:36:00,
2013-07-21 04:42:00,70.3,70.0,29.86,SSW,196,0.0,0.9,99,0.00,,,0.24,meteobridge,2013-07-21 08:42:00,
2013-07-21 04:47:00,70.3,70.0,29.87,SSW,196,0.0,0.0,99,0.00,,,0.24,meteobridge,2013-07-21 08:47:00,
2013-07-21 04:52:00,70.2,69.8,29.87,SSW,196,0.0,0.0,99,0.00,,,0.24,meteobridge,2013-07-21 08:52:00,
2013-07-21 04:57:00,70.2,69.8,29.87,SSW,196,0.0,0.0,99,0.00,,,0.24,meteobridge,2013-07-21 08:57:00,
2013-07-21 05:02:00,70.2,69.8,29.86,SSW,196,0.0,0.0,99,0.00,,,0.24,meteobridge,2013-07-21 09:02:00,
2013-07-21 05:07:00,70.0,69.6,29.86,SSW,196,2.0,2.0,99,0.00,,,0.24,meteobridge,2013-07-21 09:07:00,
2013-07-21 05:13:00,70.0,69.6,29.86,SSW,196,0.0,0.0,99,0.00,,,0.24,meteobridge,2013-07-21 09:13:00,
2013-07-21 05:18:00,70.0,69.6,29.88,SSW,196,0.0,0.9,99,0.00,,,0.24,meteobridge,2013-07-21 09:18:00,
2013-07-21 05:23:00,70.0,69.6,29.88,SSW,196,0.0,0.0,99,0.00,,,0.24,meteobridge,2013-07-21 09:23:00,
2013-07-21 05:28:00,70.0,69.6,29.88,SSW,196,0.0,0.0,99,0.00,,,0.24,meteobridge,2013-07-21 09:28:00,
2013-07-21 05:33:00,70.0,69.6,29.88,SSW,196,0.0,0.0,99,0.00,,,0.24,meteobridge,2013-07-21 09:33:00,
2013-07-21 05:38:00,70.0,69.6,29.88,SSW,196,0.0,0.0,99,0.00,,,0.24,meteobridge,2013-07-21 09:38:00,
2013-07-21 05:44:00,70.0,69.6,29.88,SSW,196,0.0,0.0,99,0.00,,,0.24,meteobridge,2013-07-21 09:44:00,
2013-07-21 05:49:00,70.0,69.6,29.88,SSW,196,0.0,0.0,99,0.00,,,0.24,meteobridge,2013-07-21 09:49:00,
2013-07-21 05:54:00,70.0,69.6,29.88,SSW,196,0.0,0.0,99,0.00,,,0.24,meteobridge,2013-07-21 09:54:00,
2013-07-21 05:59:00,70.0,69.6,29.88,SSW,196,0.0,0.9,99,0.00,,,0.24,meteobridge,2013-07-21 09:59:00,
2013-07-21 06:04:00,70.0,69.6,29.88,SSW,196,0.0,0.0,99,0.00,,,0.24,meteobridge,2013-07-21 10:04:00,
2013-07-21 06:09:00,70.0,69.6,29.88,SSW,196,0.0,0.0,99,0.00,,,0.24,meteobridge,2013-07-21 10:09:00,
2013-07-21 06:15:00,70.0,69.6,29.89,SSW,196,0.0,0.0,99,0.00,,,0.24,meteobridge,2013-07-21 10:15:00,
2013-07-21 06:20:00,69.8,69.4,29.89,SSW,196,0.0,0.0,99,0.00,,,0.24,meteobridge,2013-07-21 10:20:00,
2013-07-21 06:25:00,69.8,69.4,29.89,SSW,196,0.0,0.0,99,0.00,,,0.24,meteobridge,2013-07-21 10:25:00,
2013-07-21 06:30:00,70.0,69.6,29.90,SSW,196,0.0,0.0,99,0.00,,,0.24,meteobridge,2013-07-21 10:30:00,
2013-07-21 06:36:00,70.0,69.6,29.90,SSW,196,0.0,0.0,99,0.00,,,0.24,meteobridge,2013-07-21 10:36:00,
2013-07-21 06:41:00,69.8,69.4,29.90,SSW,196,0.0,0.0,99,0.00,,,0.24,meteobridge,2013-07-21 10:41:00,
2013-07-21 06:46:00,69.8,69.4,29.90,SSW,196,0.0,0.0,99,0.00,,,0.24,meteobridge,2013-07-21 10:46:00,
2013-07-21 06:51:00,69.8,69.4,29.90,SSW,196,0.0,0.0,99,0.00,,,0.24,meteobridge,2013-07-21 10:51:00,
2013-07-21 06:56:00,69.8,69.4,29.90,SSW,196,0.0,0.0,99,0.00,,,0.24,meteobridge,2013-07-21 10:56:00,
2013-07-21 07:02:00,69.8,69.4,29.91,SSW,196,0.0,0.0,99,0.00,,,0.24,meteobridge,2013-07-21 11:02:00,
2013-07-21 07:07:00,70.0,69.6,29.91,SSW,196,0.0,0.0,99,0.00,,,0.24,meteobridge,2013-07-21 11:07:00,
2013-07-21 07:12:00,70.0,69.6,29.91,SSW,196,0.0,0.0,99,0.00,,,0.24,meteobridge,2013-07-21 11:12:00,
2013-07-21 07:17:00,70.2,69.8,29.91,SSW,196,0.0,0.0,99,0.00,,,0.24,meteobridge,2013-07-21 11:17:00,
2013-07-21 07:22:00,70.3,70.0,29.91,SSW,196,0.0,2.0,99,0.00,,,0.24,meteobridge,2013-07-21 11:22:00,
2013-07-21 07:27:00,70.3,70.0,29.91,SSW,196,0.0,2.0,99,0.00,,,0.24,meteobridge,2013-07-21 11:27:00,
2013-07-21 07:32:00,70.3,70.0,29.92,WSW,241,0.0,2.0,99,0.00,,,0.24,meteobridge,2013-07-21 11:32:00,
2013-07-21 07:37:00,70.3,70.0,29.92,West,274,2.0,2.9,99,0.00,,,0.24,meteobridge,2013-07-21 11:37:00,
2013-07-21 07:42:00,70.3,70.0,29.92,West,274,0.0,0.0,99,0.00,,,0.24,meteobridge,2013-07-21 11:42:00,
2013-07-21 07:48:00,70.3,70.0,29.92,West,274,0.0,0.0,99,0.00,,,0.24,meteobridge,2013-07-21 11:48:00,
2013-07-21 07:53:00,70.3,70.0,29.92,West,274,0.0,0.0,99,0.00,,,0.24,meteobridge,2013-07-21 11:53:00,
2013-07-21 07:58:00,70.3,70.0,29.92,West,274,0.0,0.0,99,0.00,,,0.24,meteobridge,2013-07-21 11:58:00,
2013-07-21 08:03:00,70.3,70.0,29.92,West,274,0.0,0.0,99,0.00,,,0.24,meteobridge,2013-07-21 12:03:00,
2013-07-21 08:08:00,70.3,70.0,29.92,West,274,0.0,0.0,99,0.00,,,0.24,meteobridge,2013-07-21 12:08:00,
2013-07-21 08:14:00,70.5,70.2,29.93,West,274,0.0,0.0,99,0.00,,,0.24,meteobridge,2013-07-21 12:14:00,
2013-07-21 08:19:00,70.9,70.5,29.93,WSW,256,0.9,2.0,99,0.00,,,0.24,meteobridge,2013-07-21 12:19:00,
2013-07-21 08:24:00,70.9,70.9,29.93,WSW,256,0.0,0.0,100,0.00,,,0.24,meteobridge,2013-07-21 12:24:00,
2013-07-21 08:30:00,71.1,71.1,29.93,WSW,256,0.0,0.0,100,0.00,,,0.24,meteobridge,2013-07-21 12:30:00,
2013-07-21 08:35:00,71.2,71.2,29.93,WSW,256,0.0,0.0,100,0.00,,,0.24,meteobridge,2013-07-21 12:35:00,
2013-07-21 08:40:00,71.6,71.6,29.93,WSW,256,0.0,0.9,100,0.00,,,0.24,meteobridge,2013-07-21 12:40:00,
2013-07-21 08:45:00,71.8,71.8,29.93,WSW,256,0.9,2.0,100,0.00,,,0.24,meteobridge,2013-07-21 12:45:00,
2013-07-21 08:50:00,71.8,71.8,29.93,WSW,256,0.9,2.0,100,0.00,,,0.24,meteobridge,2013-07-21 12:50:00,
2013-07-21 08:55:00,71.8,71.8,29.93,WSW,256,0.0,0.0,100,0.00,,,0.24,meteobridge,2013-07-21 12:55:00,
2013-07-21 09:00:00,71.6,71.6,29.93,WSW,256,0.0,2.0,100,0.00,,,0.24,meteobridge,2013-07-21 13:00:00,
2013-07-21 09:05:00,71.6,71.6,29.93,SW,227,0.0,0.0,100,0.00,,,0.24,meteobridge,2013-07-21 13:05:00,
2013-07-21 09:10:00,71.6,71.6,29.93,South,172,0.9,2.0,100,0.00,,,0.24,meteobridge,2013-07-21 13:10:00,
2013-07-21 09:16:00,71.2,71.2,29.92,South,172,0.0,0.9,100,0.00,,,0.24,meteobridge,2013-07-21 13:16:00,
2013-07-21 09:21:00,71.4,71.4,29.92,South,172,2.0,2.9,100,0.00,,,0.24,meteobridge,2013-07-21 13:21:00,
2013-07-21 09:27:00,71.6,71.6,29.92,South,172,0.0,0.0,100,0.00,,,0.24,meteobridge,2013-07-21 13:27:00,
2013-07-21 09:32:00,71.8,71.8,29.94,South,172,0.0,0.0,100,0.00,,,0.24,meteobridge,2013-07-21 13:32:00,
2013-07-21 09:37:00,71.8,71.8,29.94,SW,219,0.0,2.0,100,0.01,,,0.25,meteobridge,2013-07-21 13:37:00,
2013-07-21 09:42:00,72.0,72.0,29.94,WSW,240,2.9,4.0,100,0.03,,,0.27,meteobridge,2013-07-21 13:42:00,
2013-07-21 09:47:00,72.0,72.0,29.96,WNW,284,4.0,6.9,100,0.14,,,0.38,meteobridge,2013-07-21 13:47:00,
2013-07-21 09:52:00,71.1,70.7,29.96,SW,223,2.0,4.9,99,0.24,,,0.48,meteobridge,2013-07-21 13:52:00,
2013-07-21 09:57:00,70.9,70.5,29.96,SW,233,0.0,0.9,99,0.32,,,0.56,meteobridge,2013-07-21 13:57:00,
2013-07-21 10:03:00,70.3,70.0,29.94,SW,233,0.0,0.0,99,0.35,,,0.59,meteobridge,2013-07-21 14:03:00,
2013-07-21 10:08:00,70.3,70.0,29.94,SW,233,0.0,0.0,99,0.36,,,0.60,meteobridge,2013-07-21 14:08:00,
2013-07-21 10:13:00,70.3,70.0,29.94,SW,236,0.9,0.9,99,0.38,,,0.62,meteobridge,2013-07-21 14:13:00,
2013-07-21 10:18:00,70.3,70.0,29.94,WSW,257,0.0,2.0,99,0.40,,,0.64,meteobridge,2013-07-21 14:18:00,
2013-07-21 10:23:00,70.3,70.0,29.94,WSW,257,0.0,0.0,99,0.41,,,0.65,meteobridge,2013-07-21 14:23:00,
2013-07-21 10:28:00,70.3,70.0,29.94,WSW,257,0.0,0.0,99,0.41,,,0.65,meteobridge,2013-07-21 14:28:00,
2013-07-21 10:34:00,70.9,70.5,29.93,WSW,257,0.0,0.0,99,0.42,,,0.66,meteobridge,2013-07-21 14:34:00,
2013-07-21 10:39:00,70.9,70.5,29.93,WSW,257,0.0,0.0,99,0.41,,,0.66,meteobridge,2013-07-21 14:39:00,
2013-07-21 10:44:00,70.9,70.5,29.93,WSW,257,0.0,0.0,99,0.36,,,0.66,meteobridge,2013-07-21 14:44:00,
2013-07-21 10:49:00,71.1,70.7,29.93,WSW,257,0.0,0.0,99,0.21,,,0.66,meteobridge,2013-07-21 14:49:00,
2013-07-21 10:54:00,71.4,71.1,29.93,WSW,257,0.9,2.0,99,0.14,,,0.66,meteobridge,2013-07-21 14:54:00,
2013-07-21 10:59:00,72.0,71.6,29.95,WSW,257,0.9,2.0,99,0.08,,,0.66,meteobridge,2013-07-21 14:59:00,
2013-07-21 11:05:00,72.7,72.3,29.95,WSW,257,0.9,2.0,99,0.07,,,0.66,meteobridge,2013-07-21 15:05:00,
2013-07-21 11:10:00,72.9,72.5,29.95,WSW,258,2.0,4.0,99,0.05,,,0.66,meteobridge,2013-07-21 15:10:00,
2013-07-21 11:15:00,72.9,72.5,29.95,WSW,258,0.9,2.0,99,0.03,,,0.66,meteobridge,2013-07-21 15:15:00,
2013-07-21 11:20:00,73.2,72.9,29.95,West,267,0.0,0.9,99,0.01,,,0.66,meteobridge,2013-07-21 15:20:00,
2013-07-21 11:25:00,73.6,73.2,29.95,West,268,0.9,0.9,99,0.01,,,0.66,meteobridge,2013-07-21 15:25:00,
2013-07-21 11:31:00,74.1,73.8,29.95,West,267,0.0,0.0,99,0.00,,,0.66,meteobridge,2013-07-21 15:31:00,
2013-07-21 11:36:00,74.5,73.9,29.95,SSW,198,0.0,2.9,98,0.00,,,0.66,meteobridge,2013-07-21 15:36:00,
2013-07-21 11:41:00,74.1,73.2,29.95,SW,233,2.0,6.0,97,0.00,,,0.66,meteobridge,2013-07-21 15:41:00,
2013-07-21 11:46:00,74.7,73.8,29.95,WSW,253,0.9,4.9,97,0.00,,,0.66,meteobridge,2013-07-21 15:46:00,
2013-07-21 11:51:00,75.7,74.1,29.95,West,261,2.9,4.9,95,0.00,,,0.66,meteobridge,2013-07-21 15:51:00,
2013-07-21 11:56:00,76.1,73.2,29.95,SSE,164,0.9,2.9,91,0.00,,,0.66,meteobridge,2013-07-21 15:56:00,
2013-07-21 12:01:00,76.5,73.0,29.95,SSW,213,0.0,2.9,89,0.00,,,0.66,meteobridge,2013-07-21 16:01:00,
2013-07-21 12:06:00,77.0,72.5,29.95,SSW,205,0.0,2.9,86,0.00,,,0.66,meteobridge,2013-07-21 16:06:00,
2013-07-21 12:11:00,77.2,71.6,29.95,WSW,246,2.0,2.0,83,0.00,,,0.66,meteobridge,2013-07-21 16:11:00,
2013-07-21 12:16:00,77.5,71.6,29.94,WSW,248,0.0,0.9,82,0.00,,,0.66,meteobridge,2013-07-21 16:16:00,
2013-07-21 12:21:00,78.3,71.6,29.94,WSW,250,0.0,0.9,80,0.00,,,0.66,meteobridge,2013-07-21 16:21:00,
2013-07-21 12:26:00,78.4,71.4,29.94,North,0,2.0,4.0,79,0.00,,,0.66,meteobridge,2013-07-21 16:26:00,
2013-07-21 12:31:00,78.8,71.8,29.93,WSW,243,2.0,4.0,79,0.00,,,0.66,meteobridge,2013-07-21 16:31:00,
2013-07-21 12:36:00,79.5,71.6,29.93,WSW,243,0.9,0.9,77,0.00,,,0.66,meteobridge,2013-07-21 16:36:00,
2013-07-21 12:41:00,80.2,71.2,29.93,WSW,258,0.0,0.9,74,0.00,,,0.66,meteobridge,2013-07-21 16:41:00,
2013-07-21 12:46:00,81.1,72.5,29.93,West,260,0.9,2.0,75,0.00,,,0.66,meteobridge,2013-07-21 16:46:00,
2013-07-21 12:52:00,81.7,70.9,29.93,West,270,0.0,0.9,70,0.00,,,0.66,meteobridge,2013-07-21 16:52:00,
2013-07-21 12:57:00,82.2,70.5,29.93,NW,325,0.0,2.0,68,0.00,,,0.66,meteobridge,2013-07-21 16:57:00,
2013-07-21 13:02:00,82.4,70.3,29.93,WNW,302,2.0,2.9,67,0.00,,,0.66,meteobridge,2013-07-21 17:02:00,
2013-07-21 13:07:00,82.6,70.9,29.93,WNW,302,0.9,4.0,68,0.00,,,0.66,meteobridge,2013-07-21 17:07:00,
2013-07-21 13:12:00,82.0,70.0,29.93,SSW,210,2.0,6.0,67,0.00,,,0.66,meteobridge,2013-07-21 17:12:00,
2013-07-21 13:18:00,81.1,69.6,29.93,SSW,210,0.0,4.0,68,0.00,,,0.66,meteobridge,2013-07-21 17:18:00,
2013-07-21 13:23:00,81.1,70.9,29.93,WSW,239,2.9,6.0,71,0.00,,,0.66,meteobridge,2013-07-21 17:23:00,
2013-07-21 13:28:00,81.7,71.4,29.93,WSW,239,0.0,4.0,71,0.00,,,0.66,meteobridge,2013-07-21 17:28:00,
2013-07-21 13:33:00,82.4,70.7,29.93,WSW,239,0.0,2.0,68,0.00,,,0.66,meteobridge,2013-07-21 17:33:00,
2013-07-21 13:38:00,83.1,71.1,29.93,WSW,246,0.9,2.9,67,0.00,,,0.66,meteobridge,2013-07-21 17:38:00,
2013-07-21 13:43:00,82.6,70.5,29.93,South,186,0.0,2.0,67,0.00,,,0.66,meteobridge,2013-07-21 17:43:00,
2013-07-21 13:48:00,82.2,70.5,29.93,South,186,0.0,2.9,68,0.00,,,0.66,meteobridge,2013-07-21 17:48:00,
2013-07-21 13:53:00,82.4,71.2,29.93,SW,233,0.0,2.9,69,0.00,,,0.66,meteobridge,2013-07-21 17:53:00,
2013-07-21 13:58:00,82.6,70.9,29.93,WSW,239,0.0,0.9,68,0.00,,,0.66,meteobridge,2013-07-21 17:58:00,
2013-07-21 14:03:00,82.6,70.9,29.92,WSW,244,2.0,4.0,68,0.00,,,0.66,meteobridge,2013-07-21 18:03:00,
2013-07-21 14:08:00,82.6,70.0,29.92,WSW,257,0.0,0.0,66,0.00,,,0.66,meteobridge,2013-07-21 18:08:00,
2013-07-21 14:13:00,82.2,70.2,29.92,West,264,0.0,2.0,67,0.00,,,0.66,meteobridge,2013-07-21 18:13:00,
2013-07-21 14:18:00,81.9,70.7,29.92,West,264,0.9,2.9,69,0.00,,,0.66,meteobridge,2013-07-21 18:18:00,
2013-07-21 14:23:00,81.9,71.1,29.92,West,264,0.0,2.0,70,0.00,,,0.66,meteobridge,2013-07-21 18:23:00,
2013-07-21 14:28:00,81.7,70.5,29.92,West,265,0.9,2.0,69,0.00,,,0.66,meteobridge,2013-07-21 18:28:00,
2013-07-21 14:33:00,81.7,70.5,29.91,West,265,0.0,0.9,69,0.00,,,0.66,meteobridge,2013-07-21 18:33:00,
2013-07-21 14:38:00,81.3,70.2,29.91,West,264,0.9,0.9,69,0.00,,,0.66,meteobridge,2013-07-21 18:38:00,
2013-07-21 14:43:00,81.9,71.6,29.91,West,264,0.0,0.9,71,0.00,,,0.66,meteobridge,2013-07-21 18:43:00,
2013-07-21 14:48:00,81.9,71.1,29.91,West,264,2.0,2.9,70,0.00,,,0.66,meteobridge,2013-07-21 18:48:00,
2013-07-21 14:54:00,82.0,70.3,29.91,West,264,0.0,0.9,68,0.00,,,0.66,meteobridge,2013-07-21 18:54:00,
2013-07-21 14:59:00,82.2,71.4,29.91,West,265,0.0,0.0,70,0.00,,,0.66,meteobridge,2013-07-21 18:59:00,
2013-07-21 15:04:00,82.0,70.3,29.90,WNW,292,0.9,2.0,68,0.00,,,0.66,meteobridge,2013-07-21 19:04:00,
2013-07-21 15:09:00,81.9,70.3,29.90,NW,323,0.9,2.9,68,0.00,,,0.66,meteobridge,2013-07-21 19:09:00,
2013-07-21 15:14:00,82.0,70.3,29.90,NW,319,2.0,6.0,68,0.00,,,0.66,meteobridge,2013-07-21 19:14:00,
2013-07-21 15:19:00,82.4,70.3,29.90,North,353,0.0,2.9,67,0.00,,,0.66,meteobridge,2013-07-21 19:19:00,
2013-07-21 15:24:00,82.4,70.3,29.90,North,0,0.0,2.9,67,0.00,,,0.66,meteobridge,2013-07-21 19:24:00,
2013-07-21 15:29:00,82.4,70.3,29.89,North,0,0.0,2.9,67,0.00,,,0.66,meteobridge,2013-07-21 19:29:00,
2013-07-21 15:34:00,82.4,70.7,29.89,North,0,0.0,2.9,68,0.00,,,0.66,meteobridge,2013-07-21 19:34:00,
2013-07-21 15:39:00,82.8,71.6,29.89,NNE,13,0.0,0.9,69,0.00,,,0.66,meteobridge,2013-07-21 19:39:00,
2013-07-21 15:44:00,82.9,71.2,29.88,NNE,13,0.0,0.0,68,0.00,,,0.66,meteobridge,2013-07-21 19:44:00,
2013-07-21 15:49:00,83.7,71.6,29.88,NNE,13,0.0,0.9,67,0.00,,,0.66,meteobridge,2013-07-21 19:49:00,
2013-07-21 15:54:00,84.0,70.5,29.88,West,277,0.0,0.9,64,0.00,,,0.66,meteobridge,2013-07-21 19:54:00,
2013-07-21 15:59:00,84.7,70.7,29.88,West,277,0.0,0.0,63,0.00,,,0.66,meteobridge,2013-07-21 19:59:00,
2013-07-21 16:05:00,85.1,70.2,29.88,West,281,0.0,0.0,61,0.00,,,0.66,meteobridge,2013-07-21 20:05:00,
2013-07-21 16:10:00,85.1,71.1,29.88,WNW,287,0.0,2.9,63,0.00,,,0.66,meteobridge,2013-07-21 20:10:00,
2013-07-21 16:15:00,84.4,70.9,29.88,NE,35,0.0,2.9,64,0.00,,,0.66,meteobridge,2013-07-21 20:15:00,
2013-07-21 16:20:00,84.0,71.1,29.88,NNE,14,0.0,2.9,65,0.00,,,0.66,meteobridge,2013-07-21 20:20:00,
2013-07-21 16:25:00,84.0,71.1,29.88,NNE,14,0.0,0.9,65,0.00,,,0.66,meteobridge,2013-07-21 20:25:00,
2013-07-21 16:30:00,84.0,71.1,29.88,NNE,14,0.0,0.9,65,0.00,,,0.66,meteobridge,2013-07-21 20:30:00,
2013-07-21 16:35:00,84.6,71.4,29.88,NNE,16,0.0,0.9,65,0.00,,,0.66,meteobridge,2013-07-21 20:35:00,
2013-07-21 16:41:00,84.6,70.5,29.88,NNE,16,0.0,0.9,63,0.00,,,0.66,meteobridge,2013-07-21 20:41:00,
2013-07-21 16:47:00,84.6,71.1,29.88,NNE,16,0.0,0.0,64,0.00,,,0.66,meteobridge,2013-07-21 20:47:00,
2013-07-21 16:52:00,84.0,71.1,29.88,NNE,17,0.0,0.9,65,0.00,,,0.66,meteobridge,2013-07-21 20:52:00,
2013-07-21 16:57:00,84.4,70.9,29.88,NNE,13,0.0,2.0,64,0.00,,,0.66,meteobridge,2013-07-21 20:57:00,
2013-07-21 17:02:00,84.7,71.2,29.87,NNE,13,0.0,0.0,64,0.00,,,0.66,meteobridge,2013-07-21 21:02:00,
2013-07-21 17:07:00,84.7,71.6,29.87,NNE,13,0.0,0.9,65,0.00,,,0.66,meteobridge,2013-07-21 21:07:00,
2013-07-21 17:12:00,84.4,71.2,29.87,NNE,13,0.0,2.0,65,0.00,,,0.66,meteobridge,2013-07-21 21:12:00,
2013-07-21 17:17:00,84.4,71.8,29.88,NNE,13,0.0,0.9,66,0.00,,,0.66,meteobridge,2013-07-21 21:17:00,
2013-07-21 17:22:00,84.0,72.0,29.88,NNE,23,0.0,0.0,67,0.00,,,0.66,meteobridge,2013-07-21 21:22:00,
2013-07-21 17:28:00,84.0,71.1,29.88,NNE,23,0.0,0.0,65,0.00,,,0.66,meteobridge,2013-07-21 21:28:00,
2013-07-21 17:33:00,83.8,70.9,29.88,NNE,31,2.0,2.9,65,0.00,,,0.66,meteobridge,2013-07-21 21:33:00,
2013-07-21 17:38:00,83.1,71.4,29.88,NNE,32,2.0,2.9,68,0.00,,,0.66,meteobridge,2013-07-21 21:38:00,
2013-07-21 17:43:00,82.9,71.2,29.88,NNE,32,2.0,2.9,68,0.00,,,0.66,meteobridge,2013-07-21 21:43:00,
2013-07-21 17:48:00,82.9,70.9,29.87,NE,52,0.9,2.0,67,0.00,,,0.66,meteobridge,2013-07-21 21:48:00,
2013-07-21 17:58:00,82.6,70.9,29.87,ENE,71,2.0,4.0,68,0.00,,,0.66,meteobridge,2013-07-21 21:58:00,
2013-07-21 18:03:00,82.6,70.9,29.87,ENE,71,2.0,2.9,68,0.00,,,0.66,meteobridge,2013-07-21 22:03:00,
2013-07-21 18:08:00,82.4,70.7,29.87,ENE,71,2.0,2.9,68,0.00,,,0.66,meteobridge,2013-07-21 22:08:00,
2013-07-21 18:13:00,82.4,70.7,29.87,ENE,71,0.0,0.9,68,0.00,,,0.66,meteobridge,2013-07-21 22:13:00,
2013-07-21 18:18:00,82.4,71.6,29.86,SSE,150,4.9,4.9,70,0.00,,,0.66,meteobridge,2013-07-21 22:18:00,
2013-07-21 18:24:00,82.0,72.1,29.86,SE,144,0.0,2.9,72,0.00,,,0.66,meteobridge,2013-07-21 22:24:00,
2013-07-21 18:29:00,81.3,71.8,29.86,SE,141,0.9,6.0,73,0.00,,,0.66,meteobridge,2013-07-21 22:29:00,
2013-07-21 18:34:00,81.1,71.6,29.85,SE,141,0.0,0.0,73,0.00,,,0.66,meteobridge,2013-07-21 22:34:00,
2013-07-21 18:39:00,81.1,71.6,29.85,SE,141,2.0,2.9,73,0.00,,,0.66,meteobridge,2013-07-21 22:39:00,
2013-07-21 18:44:00,81.0,71.4,29.85,SE,141,0.9,2.0,73,0.00,,,0.66,meteobridge,2013-07-21 22:44:00,
2013-07-21 18:49:00,81.0,71.4,29.85,SE,141,0.9,0.9,73,0.00,,,0.66,meteobridge,2013-07-21 22:49:00,
2013-07-21 18:55:00,80.8,72.1,29.85,SE,141,0.0,0.0,75,0.00,,,0.66,meteobridge,2013-07-21 22:55:00,
2013-07-21 19:00:00,80.8,72.1,29.85,SE,141,0.0,0.0,75,0.00,,,0.66,meteobridge,2013-07-21 23:00:00,
2013-07-21 19:05:00,80.8,72.1,29.85,SE,143,0.0,0.0,75,0.00,,,0.66,meteobridge,2013-07-21 23:05:00,
2013-07-21 19:10:00,80.8,71.8,29.85,SE,143,0.9,0.9,74,0.00,,,0.66,meteobridge,2013-07-21 23:10:00,
2013-07-21 19:15:00,81.1,72.5,29.85,SE,143,0.0,0.0,75,0.00,,,0.66,meteobridge,2013-07-21 23:15:00,
2013-07-21 19:20:00,81.1,72.1,29.85,SE,143,0.9,2.9,74,0.00,,,0.66,meteobridge,2013-07-21 23:20:00,
2013-07-21 19:26:00,81.1,72.1,29.85,SE,140,0.0,4.9,74,0.00,,,0.66,meteobridge,2013-07-21 23:26:00,
2013-07-21 19:31:00,81.0,72.0,29.85,ESE,116,2.0,6.0,74,0.00,,,0.66,meteobridge,2013-07-21 23:31:00,
2013-07-21 19:36:00,80.4,70.9,29.85,ESE,117,6.0,6.9,73,0.00,,,0.66,meteobridge,2013-07-21 23:36:00,
2013-07-21 19:41:00,79.9,70.5,29.85,SE,134,0.0,4.9,73,0.00,,,0.66,meteobridge,2013-07-21 23:41:00,
2013-07-21 19:46:00,79.5,70.5,29.85,SSE,148,0.0,2.9,74,0.00,,,0.66,meteobridge,2013-07-21 23:46:00,
2013-07-21 19:51:00,79.5,70.9,29.85,SSE,148,2.0,2.9,75,0.00,,,0.66,meteobridge,2013-07-21 23:51:00,
2013-07-21 19:56:00,79.5,71.6,29.85,SSE,148,0.0,0.0,77,0.00,,,0.66,meteobridge,2013-07-21 23:56:00,
2013-07-21 20:02:00,79.3,71.1,29.86,SSE,158,0.9,2.9,76,0.00,,,0.00,meteobridge,2013-07-22 00:02:00,
2013-07-21 20:07:00,79.2,71.2,29.86,SSE,158,0.0,0.0,77,0.00,,,0.00,meteobridge,2013-07-22 00:07:00,
2013-07-21 20:12:00,79.2,71.2,29.86,SSE,158,0.0,0.9,77,0.00,,,0.00,meteobridge,2013-07-22 00:12:00,
2013-07-21 20:17:00,78.8,71.1,29.87,SSE,158,2.0,2.9,77,0.00,,,0.00,meteobridge,2013-07-22 00:17:00,
2013-07-21 20:22:00,78.6,70.9,29.87,WSW,243,0.9,0.9,77,0.00,,,0.00,meteobridge,2013-07-22 00:22:00,
2013-07-21 20:27:00,78.4,70.7,29.87,WSW,243,0.0,0.9,77,0.00,,,0.00,meteobridge,2013-07-22 00:27:00,
2013-07-21 20:32:00,78.3,70.9,29.87,WSW,243,0.9,0.9,78,0.00,,,0.00,meteobridge,2013-07-22 00:32:00,
2013-07-21 20:37:00,78.3,70.9,29.87,WSW,243,0.0,0.0,78,0.00,,,0.00,meteobridge,2013-07-22 00:37:00,
2013-07-21 20:42:00,77.9,70.9,29.87,WSW,243,0.0,0.9,79,0.00,,,0.00,meteobridge,2013-07-22 00:42:00,
2013-07-21 20:48:00,77.5,70.9,29.87,WSW,243,0.0,2.0,80,0.00,,,0.00,meteobridge,2013-07-22 00:48:00,
2013-07-21 20:53:00,77.0,70.3,29.87,SSW,205,0.0,2.0,80,0.00,,,0.00,meteobridge,2013-07-22 00:53:00,
2013-07-21 20:58:00,76.6,70.3,29.87,SSW,205,0.0,0.0,81,0.00,,,0.00,meteobridge,2013-07-22 00:58:00,
2013-07-21 21:03:00,76.5,70.5,29.87,SSW,205,0.0,0.0,82,0.00,,,0.00,meteobridge,2013-07-22 01:03:00,
2013-07-21 21:08:00,76.1,70.5,29.87,SSW,205,0.0,0.0,83,0.00,,,0.00,meteobridge,2013-07-22 01:08:00,
2013-07-21 21:13:00,75.9,70.3,29.87,SSW,205,0.0,0.0,83,0.00,,,0.00,meteobridge,2013-07-22 01:13:00,
2013-07-21 21:19:00,75.9,70.7,29.88,SSW,205,0.0,0.0,84,0.00,,,0.00,meteobridge,2013-07-22 01:19:00,
2013-07-21 21:29:00,75.6,70.3,29.88,SSW,205,0.0,0.0,84,0.00,,,0.00,meteobridge,2013-07-22 01:29:00,
2013-07-21 21:34:00,75.4,70.2,29.88,SSW,205,0.0,0.0,84,0.00,,,0.00,meteobridge,2013-07-22 01:34:00,
2013-07-21 21:39:00,75.4,70.5,29.88,SSW,205,0.0,0.0,85,0.00,,,0.00,meteobridge,2013-07-22 01:39:00,
2013-07-21 21:44:00,75.0,70.5,29.89,SSW,205,0.0,0.0,86,0.00,,,0.00,meteobridge,2013-07-22 01:44:00,
2013-07-21 21:50:00,74.8,70.3,29.89,SSW,205,0.0,0.0,86,0.00,,,0.00,meteobridge,2013-07-22 01:50:00,
2013-07-21 21:55:00,74.7,70.5,29.89,SSW,205,0.0,0.0,87,0.00,,,0.00,meteobridge,2013-07-22 01:55:00,
2013-07-21 22:00:00,74.7,70.5,29.89,SSW,205,0.0,0.0,87,0.00,,,0.00,meteobridge,2013-07-22 02:00:00,
2013-07-21 22:05:00,74.7,70.5,29.89,SSW,205,0.0,0.0,87,0.00,,,0.00,meteobridge,2013-07-22 02:05:00,
2013-07-21 22:10:00,74.7,70.5,29.89,SSW,205,0.0,0.0,87,0.00,,,0.00,meteobridge,2013-07-22 02:10:00,
2013-07-21 22:15:00,74.5,70.7,29.90,SSW,205,0.0,0.9,88,0.00,,,0.00,meteobridge,2013-07-22 02:15:00,
2013-07-21 22:21:00,74.5,70.7,29.90,SSW,205,0.0,0.0,88,0.00,,,0.00,meteobridge,2013-07-22 02:21:00,
2013-07-21 22:26:00,74.1,70.7,29.90,SSW,205,0.0,0.0,89,0.00,,,0.00,meteobridge,2013-07-22 02:26:00,
2013-07-21 22:31:00,74.1,70.7,29.90,SSW,205,0.0,0.0,89,0.00,,,0.00,meteobridge,2013-07-22 02:31:00,
2013-07-21 22:36:00,74.1,70.7,29.90,SSW,205,0.0,0.0,89,0.00,,,0.00,meteobridge,2013-07-22 02:36:00,
2013-07-21 22:41:00,73.9,70.9,29.90,SSW,205,0.0,0.0,90,0.00,,,0.00,meteobridge,2013-07-22 02:41:00,
2013-07-21 22:47:00,73.9,70.9,29.91,SSW,205,0.0,0.0,90,0.00,,,0.00,meteobridge,2013-07-22 02:47:00,
2013-07-21 22:52:00,73.9,70.9,29.91,SSW,205,0.0,0.0,90,0.00,,,0.00,meteobridge,2013-07-22 02:52:00,
2013-07-21 22:57:00,73.9,71.1,29.91,SSW,205,0.0,0.0,91,0.00,,,0.00,meteobridge,2013-07-22 02:57:00,
2013-07-21 23:02:00,73.9,71.1,29.90,SSW,205,0.0,0.0,91,0.00,,,0.00,meteobridge,2013-07-22 03:02:00,
2013-07-21 23:07:00,73.8,70.9,29.90,SSW,205,0.0,0.0,91,0.00,,,0.00,meteobridge,2013-07-22 03:07:00,
2013-07-21 23:12:00,73.8,71.2,29.90,SSW,205,0.0,0.0,92,0.00,,,0.00,meteobridge,2013-07-22 03:12:00,
2013-07-21 23:17:00,73.8,71.2,29.90,SSW,205,0.0,0.0,92,0.00,,,0.00,meteobridge,2013-07-22 03:17:00,
2013-07-21 23:23:00,73.6,71.1,29.90,SSW,205,0.0,0.0,92,0.00,,,0.00,meteobridge,2013-07-22 03:23:00,
2013-07-21 23:28:00,73.2,71.1,29.90,SSW,205,0.0,0.0,93,0.00,,,0.00,meteobridge,2013-07-22 03:28:00,
2013-07-21 23:33:00,73.2,70.7,29.90,SSW,205,0.0,0.0,92,0.00,,,0.00,meteobridge,2013-07-22 03:33:00,
2013-07-21 23:38:00,73.2,71.1,29.90,SSW,205,0.0,0.0,93,0.00,,,0.00,meteobridge,2013-07-22 03:38:00,
2013-07-21 23:43:00,73.0,70.9,29.90,SSW,205,0.0,0.0,93,0.00,,,0.00,meteobridge,2013-07-22 03:43:00,
2013-07-21 23:49:00,73.0,70.9,29.90,SSW,205,0.0,0.0,93,0.00,,,0.00,meteobridge,2013-07-22 03:49:00,
2013-07-21 23:54:00,72.9,70.7,29.90,SSW,205,0.0,0.0,93,0.00,,,0.00,meteobridge,2013-07-22 03:54:00,
2013-07-21 23:59:00,72.7,70.9,29.91,SSW,205,0.0,0.0,94,0.00,,,0.00,meteobridge,2013-07-22 03:59:00,